Time;durP1;ratioP1;P1;durP2;ratioP2;P2;SDS_P1;SDS_P2;PMS_P1;PMS_P2;Temp;Humidity;BMP_temperature;BMP_pressure;BME280_temperature;BME280_humidity;BME280_pressure;Samples;Min_cycle;Max_cycle;Signal;HPM_P1;HPM_P2
2021/07/14 00:02:06;;;;;;;51.80;28.98;;;19.60;97.70;;;;;;5011889;28;20111;-53
2021/07/14 00:04:33;;;;;;;47.63;29.83;;;19.60;97.80;;;;;;5001281;28;20060;-55
2021/07/14 00:06:59;;;;;;;41.45;24.58;;;19.50;97.90;;;;;;5011892;28;20041;-52
2021/07/14 00:09:25;;;;;;;42.38;25.40;;;19.50;98.10;;;;;;4999343;28;20038;-53
2021/07/14 00:12:03;;;;;;;41.20;25.50;;;19.50;98.00;;;;;;4999705;28;20050;-53
2021/07/14 00:14:46;;;;;;;43.13;24.17;;;19.50;98.10;;;;;;4992515;28;20038;-53
2021/07/14 00:17:43;;;;;;;43.80;26.98;;;19.50;98.10;;;;;;5010271;28;20046;-52
2021/07/14 00:22:53;;;;;;;41.85;26.77;;;19.40;98.20;;;;;;5003748;28;20045;-52
2021/07/14 00:25:20;;;;;;;50.20;28.98;;;19.40;98.20;;;;;;5006856;28;20038;-51
2021/07/14 00:27:49;;;;;;;51.35;30.05;;;19.40;98.30;;;;;;5005079;28;20045;-56
2021/07/14 00:30:23;;;;;;;52.33;28.55;;;19.40;98.50;;;;;;5011402;28;20495;-54
2021/07/14 00:32:48;;;;;;;49.60;28.65;;;19.40;98.40;;;;;;5010873;28;20117;-52
2021/07/14 00:35:14;;;;;;;58.53;29.38;;;19.30;98.50;;;;;;5011020;28;20120;-53
2021/07/14 00:37:40;;;;;;;55.25;29.60;;;19.30;98.40;;;;;;5011183;28;20767;-49
2021/07/14 00:40:08;;;;;;;61.83;31.35;;;19.30;98.40;;;;;;5004932;28;20041;-52
2021/07/14 00:42:34;;;;;;;54.53;31.60;;;19.30;98.50;;;;;;5010591;28;20141;-52
2021/07/14 00:45:00;;;;;;;66.60;33.10;;;19.30;98.60;;;;;;5010498;28;20121;-52
2021/07/14 00:47:30;;;;;;;67.35;34.03;;;19.30;98.50;;;;;;5003255;28;20125;-51
2021/07/14 00:49:56;;;;;;;66.80;34.53;;;19.30;98.80;;;;;;5010343;28;20487;-53
2021/07/14 00:52:23;;;;;;;63.00;34.30;;;19.30;98.70;;;;;;4986184;28;20124;-52
2021/07/14 00:54:49;;;;;;;65.28;34.33;;;19.30;98.70;;;;;;5007114;28;20041;-53
2021/07/14 00:57:18;;;;;;;66.03;35.35;;;19.20;98.70;;;;;;4985994;28;20447;-52
2021/07/14 00:59:44;;;;;;;64.10;33.75;;;19.20;98.80;;;;;;5007605;28;20045;-53
2021/07/14 01:02:11;;;;;;;70.50;34.10;;;19.20;98.80;;;;;;5003172;28;20045;-51
2021/07/14 01:04:41;;;;;;;67.07;34.63;;;19.20;98.80;;;;;;5005066;28;20518;-52
2021/07/14 01:07:13;;;;;;;68.20;34.15;;;19.30;98.90;;;;;;5001142;28;20038;-53
2021/07/14 01:10:02;;;;;;;67.47;33.90;;;19.20;98.70;;;;;;5002815;28;20125;-51
2021/07/14 01:12:59;;;;;;;69.15;33.30;;;19.20;99.00;;;;;;5004490;28;20046;-52
2021/07/14 01:15:48;;;;;;;69.20;35.08;;;19.10;98.90;;;;;;4995196;28;20396;-53
2021/07/14 01:18:36;;;;;;;67.10;33.85;;;19.20;98.90;;;;;;5002215;28;20066;-52
2021/07/14 01:21:07;;;;;;;67.18;33.45;;;19.10;99.00;;;;;;5011527;28;20065;-53
2021/07/14 01:23:55;;;;;;;65.00;34.42;;;19.10;98.90;;;;;;5005646;28;20046;-51
2021/07/14 01:26:48;;;;;;;68.72;34.17;;;19.10;99.00;;;;;;5019864;28;20049;-53
2021/07/14 01:29:17;;;;;;;76.18;36.88;;;19.10;99.00;;;;;;4993682;28;20046;-53
2021/07/14 01:31:46;;;;;;;67.38;34.50;;;19.10;98.90;;;;;;5006911;28;20446;-53
2021/07/14 01:34:13;;;;;;;63.83;33.25;;;19.10;99.00;;;;;;5011500;28;20479;-53
2021/07/14 01:36:43;;;;;;;61.97;33.88;;;19.10;99.00;;;;;;4997347;28;20422;-53
2021/07/14 01:39:10;;;;;;;63.15;34.45;;;19.00;99.00;;;;;;5013560;28;20120;-57
2021/07/14 01:41:39;;;;;;;62.03;34.40;;;19.10;99.00;;;;;;5008266;28;20045;-50
2021/07/14 01:44:06;;;;;;;58.17;34.70;;;19.10;99.00;;;;;;5004762;28;20080;-53
2021/07/14 01:46:36;;;;;;;55.40;33.97;;;19.10;98.90;;;;;;5000226;28;20399;-53
2021/07/14 01:49:07;;;;;;;62.65;33.97;;;19.00;98.90;;;;;;5007726;28;20037;-53
2021/07/14 01:51:37;;;;;;;62.65;33.63;;;19.00;99.00;;;;;;5006881;28;20054;-53
2021/07/14 01:54:08;;;;;;;64.22;33.53;;;18.90;99.10;;;;;;5014183;28;20041;-52
2021/07/14 01:56:38;;;;;;;57.20;33.58;;;18.90;99.10;;;;;;5017543;28;20045;-53
2021/07/14 01:59:06;;;;;;;57.65;31.50;;;18.90;99.10;;;;;;5016469;28;20469;-50
2021/07/14 02:01:35;;;;;;;62.70;33.50;;;18.90;99.20;;;;;;5006188;28;20045;-52
2021/07/14 02:06:48;;;;;;;64.82;33.75;;;18.90;99.10;;;;;;5017231;28;20038;-53
2021/07/14 02:09:15;;;;;;;56.78;33.65;;;18.90;99.10;;;;;;5013182;28;20105;-50
2021/07/14 02:11:45;;;;;;;59.80;33.10;;;18.80;99.00;;;;;;5003766;28;20095;-51
2021/07/14 02:14:23;;;;;;;65.97;34.03;;;18.90;99.00;;;;;;5010321;28;20057;-49
2021/07/14 02:16:51;;;;;;;59.47;33.13;;;18.80;99.10;;;;;;5008332;28;20042;-51
2021/07/14 02:19:19;;;;;;;62.17;34.95;;;18.80;99.10;;;;;;5028993;28;20490;-53
2021/07/14 02:21:45;;;;;;;68.45;35.03;;;18.80;99.10;;;;;;5024923;28;20042;-52
2021/07/14 02:24:13;;;;;;;61.67;36.33;;;18.80;99.10;;;;;;5018461;28;20572;-53
2021/07/14 02:26:42;;;;;;;66.75;34.70;;;18.80;99.10;;;;;;4984384;28;20124;-52
2021/07/14 02:29:09;;;;;;;71.15;36.75;;;18.80;99.20;;;;;;5015909;28;20042;-50
2021/07/14 02:31:35;;;;;;;70.93;37.22;;;18.90;99.00;;;;;;5021416;28;20042;-51
2021/07/14 02:34:01;;;;;;;72.60;36.65;;;18.90;99.10;;;;;;5016250;28;20057;-54
2021/07/14 02:36:31;;;;;;;74.22;37.90;;;18.90;98.80;;;;;;5009502;28;20137;-52
2021/07/14 02:39:02;;;;;;;66.82;36.65;;;18.80;98.90;;;;;;4997005;28;20073;-53
2021/07/14 02:41:45;;;;;;;72.20;37.53;;;18.80;98.90;;;;;;5011057;28;20070;-50
2021/07/14 02:44:14;;;;;;;65.05;36.85;;;18.80;99.00;;;;;;5012767;28;20041;-51
2021/07/14 02:46:43;;;;;;;65.32;37.35;;;18.80;99.00;;;;;;5010672;28;20214;-53
2021/07/14 02:49:13;;;;;;;68.70;38.30;;;18.80;99.00;;;;;;5013053;28;20042;-50
2021/07/14 02:51:42;;;;;;;69.63;37.42;;;18.80;99.00;;;;;;5006190;28;20046;-54
2021/07/14 02:54:29;;;;;;;65.32;38.08;;;18.80;98.80;;;;;;5003496;28;20046;-53
2021/07/14 02:57:00;;;;;;;69.97;37.28;;;18.80;98.90;;;;;;4996233;28;20408;-53
2021/07/14 02:59:30;;;;;;;69.78;39.50;;;18.70;98.90;;;;;;4998941;28;20194;-55
2021/07/14 03:01:59;;;;;;;65.50;38.00;;;18.80;98.90;;;;;;5013125;28;20045;-52
2021/07/14 03:04:35;;;;;;;66.57;37.22;;;18.70;98.90;;;;;;4996586;28;20085;-50
2021/07/14 03:07:07;;;;;;;73.72;37.53;;;18.70;99.00;;;;;;4996947;28;20141;-53
2021/07/14 03:09:40;;;;;;;67.97;38.13;;;18.70;98.90;;;;;;5005160;28;20506;-50
2021/07/14 03:12:07;;;;;;;;;;;18.70;99.00;;;;;;5012773;28;20049;-52
2021/07/14 03:14:39;;;;;;;61.53;36.15;;;18.70;99.00;;;;;;5015370;28;20081;-53
2021/07/14 03:17:06;;;;;;;63.17;35.70;;;18.60;98.90;;;;;;5012416;28;20042;-52
2021/07/14 03:19:33;;;;;;;61.13;35.13;;;18.60;98.90;;;;;;5013148;28;20141;-51
2021/07/14 03:22:00;;;;;;;61.83;33.85;;;18.60;99.00;;;;;;5014537;28;20043;-54
2021/07/14 03:24:26;;;;;;;61.53;34.20;;;18.70;99.00;;;;;;5021422;28;20426;-52
2021/07/14 03:26:52;;;;;;;64.28;35.95;;;18.60;99.00;;;;;;5013043;28;20049;-53
2021/07/14 03:29:19;;;;;;;67.53;35.97;;;18.70;99.00;;;;;;5012977;28;20038;-53
2021/07/14 03:31:45;;;;;;;59.60;34.80;;;18.60;99.00;;;;;;5011790;28;20129;-55
2021/07/14 03:34:12;;;;;;;62.63;34.80;;;18.70;98.90;;;;;;5011833;28;20401;-53
2021/07/14 03:36:39;;;;;;;65.32;34.67;;;18.60;99.00;;;;;;5011695;28;20042;-53
2021/07/14 03:39:05;;;;;;;64.28;34.85;;;18.60;98.90;;;;;;5005502;28;20130;-52
2021/07/14 03:41:32;;;;;;;66.15;35.40;;;18.60;98.90;;;;;;5026128;28;20116;-52
2021/07/14 03:43:58;;;;;;;61.95;34.22;;;18.60;98.90;;;;;;5013549;28;20060;-53
2021/07/14 03:46:26;;;;;;;64.82;35.13;;;18.60;98.90;;;;;;5003301;28;20493;-53
2021/07/14 03:48:53;;;;;;;64.82;34.67;;;18.60;98.90;;;;;;4999578;28;20180;-53
2021/07/14 03:51:21;;;;;;;62.85;33.35;;;18.60;98.90;;;;;;4996268;28;20054;-53
2021/07/14 03:53:49;;;;;;;62.30;32.80;;;18.60;98.90;;;;;;4996454;28;20069;-55
2021/07/14 03:56:15;;;;;;;53.55;32.25;;;18.60;98.80;;;;;;5002254;28;20085;-51
2021/07/14 03:58:44;;;;;;;56.45;33.08;;;18.60;98.80;;;;;;5013217;28;20133;-51
2021/07/14 04:01:12;;;;;;;62.58;33.88;;;18.70;98.80;;;;;;5013224;28;20049;-50
2021/07/14 04:03:39;;;;;;;56.63;34.42;;;18.60;98.70;;;;;;5011479;28;20053;-53
2021/07/14 04:06:08;;;;;;;57.58;34.92;;;18.60;98.70;;;;;;5002796;28;20056;-53
2021/07/14 04:08:42;;;;;;;53.58;33.45;;;18.70;98.80;;;;;;5010941;28;20132;-55
2021/07/14 04:11:11;;;;;;;58.50;33.30;;;18.70;98.70;;;;;;5011206;28;20065;-52
2021/07/14 04:13:36;;;;;;;54.58;33.28;;;18.70;98.70;;;;;;5019304;28;20041;-51
2021/07/14 04:16:02;;;;;;;56.45;32.45;;;18.60;98.60;;;;;;5024110;28;20049;-55
2021/07/14 04:18:29;;;;;;;53.47;33.75;;;18.60;98.50;;;;;;5014548;28;20050;-53
2021/07/14 04:20:57;;;;;;;50.97;32.33;;;18.60;98.60;;;;;;5011003;28;20046;-50
2021/07/14 04:23:22;;;;;;;49.75;31.20;;;18.60;98.50;;;;;;5013724;28;20054;-53
2021/07/14 04:25:48;;;;;;;49.33;31.30;;;18.60;98.50;;;;;;5013342;28;20042;-53
2021/07/14 04:28:14;;;;;;;49.75;32.35;;;18.70;98.50;;;;;;5010471;28;20042;-51
2021/07/14 04:30:40;;;;;;;48.67;31.10;;;18.70;98.40;;;;;;5011166;28;20042;-52
2021/07/14 04:33:05;;;;;;;48.95;31.38;;;18.70;98.30;;;;;;5012345;28;20066;-51
2021/07/14 04:35:32;;;;;;;49.55;30.45;;;18.60;98.30;;;;;;4998731;28;20088;-52
2021/07/14 04:37:58;;;;;;;51.25;30.73;;;18.70;98.40;;;;;;5012934;28;20050;-49
2021/07/14 04:40:23;;;;;;;47.92;29.88;;;18.70;98.40;;;;;;5010844;28;20594;-52
2021/07/14 04:42:51;;;;;;;49.97;30.65;;;18.70;98.40;;;;;;5011505;28;20034;-52
2021/07/14 04:45:18;;;;;;;48.47;30.52;;;18.70;98.30;;;;;;5012163;28;20065;-52
2021/07/14 04:47:45;;;;;;;47.65;30.05;;;18.70;98.20;;;;;;4996894;28;20082;-50
2021/07/14 04:50:11;;;;;;;46.38;29.60;;;18.70;98.20;;;;;;5010901;28;20117;-52
2021/07/14 04:52:37;;;;;;;54.28;30.17;;;18.60;98.30;;;;;;5011416;28;20487;-53
2021/07/14 04:55:04;;;;;;;46.67;30.45;;;18.60;98.30;;;;;;4997887;28;20057;-52
2021/07/14 04:57:30;;;;;;;50.85;32.58;;;18.60;98.30;;;;;;4996018;28;20103;-52
2021/07/14 04:59:56;;;;;;;49.78;30.77;;;18.70;98.30;;;;;;5008760;28;20050;-51
2021/07/14 05:02:22;;;;;;;47.90;30.48;;;18.60;98.40;;;;;;5003173;28;20045;-53
2021/07/14 05:04:48;;;;;;;48.08;30.42;;;18.60;98.30;;;;;;5010749;28;20080;-49
2021/07/14 05:07:14;;;;;;;50.05;30.63;;;18.60;98.40;;;;;;5005858;28;20034;-53
2021/07/14 05:09:39;;;;;;;52.70;31.73;;;18.70;98.40;;;;;;5011844;28;20413;-53
2021/07/14 05:12:05;;;;;;;47.67;30.42;;;18.70;98.20;;;;;;5012815;28;20515;-54
2021/07/14 05:14:31;;;;;;;47.50;29.70;;;18.70;98.30;;;;;;5011692;28;20392;-53
2021/07/14 05:16:57;;;;;;;47.55;29.98;;;18.70;98.30;;;;;;5019053;28;20052;-50
2021/07/14 05:19:23;;;;;;;50.83;29.75;;;18.70;98.30;;;;;;5013050;28;20132;-51
2021/07/14 05:21:50;;;;;;;44.92;30.88;;;18.60;98.30;;;;;;5011729;28;20522;-52
2021/07/14 05:24:16;;;;;;;54.78;30.92;;;18.70;98.10;;;;;;5018126;28;20483;-51
2021/07/14 05:26:41;;;;;;;50.30;30.20;;;18.70;98.20;;;;;;5009515;28;20061;-53
2021/07/14 05:29:07;;;;;;;52.55;29.65;;;18.70;98.30;;;;;;5011807;28;20038;-54
2021/07/14 05:31:33;;;;;;;51.78;30.05;;;18.70;98.30;;;;;;5020724;28;20045;-53
2021/07/14 05:34:00;;;;;;;48.22;29.70;;;18.70;98.30;;;;;;5024823;28;20029;-54
2021/07/14 05:36:26;;;;;;;48.38;29.90;;;18.70;98.30;;;;;;5017718;28;20406;-53
2021/07/14 05:38:52;;;;;;;46.30;29.30;;;18.70;98.30;;;;;;5022194;28;20041;-52
2021/07/14 05:41:18;;;;;;;48.85;30.20;;;18.70;98.30;;;;;;5025366;28;20061;-49
2021/07/14 05:43:44;;;;;;;48.58;29.27;;;18.70;98.40;;;;;;5028546;28;20071;-52
2021/07/14 05:46:10;;;;;;;49.08;28.88;;;18.80;98.20;;;;;;5011140;28;20125;-52
2021/07/14 05:48:35;;;;;;;53.75;30.13;;;18.70;98.20;;;;;;5012224;28;20042;-51
2021/07/14 05:51:01;;;;;;;54.25;30.77;;;18.70;98.30;;;;;;5012366;28;20042;-50
2021/07/14 05:53:28;;;;;;;51.40;30.60;;;18.70;98.30;;;;;;5013599;28;20073;-52
2021/07/14 05:55:53;;;;;;;57.15;31.38;;;18.70;98.20;;;;;;5000278;28;20050;-52
2021/07/14 05:58:19;;;;;;;51.10;30.98;;;18.70;98.30;;;;;;4996275;28;20050;-49
2021/07/14 06:00:45;;;;;;;48.20;29.75;;;18.80;98.10;;;;;;5010335;28;20394;-52
2021/07/14 06:03:10;;;;;;;50.75;30.20;;;18.80;98.20;;;;;;5000137;28;20046;-54
2021/07/14 06:05:37;;;;;;;49.45;30.65;;;18.80;98.30;;;;;;5008560;28;20056;-54
2021/07/14 06:08:04;;;;;;;49.58;30.60;;;18.80;98.20;;;;;;4996609;28;20092;-54
2021/07/14 06:10:31;;;;;;;59.53;32.25;;;18.80;98.30;;;;;;5014616;28;20507;-54
2021/07/14 06:12:59;;;;;;;51.72;32.47;;;18.80;98.20;;;;;;4999835;28;20100;-54
2021/07/14 06:15:29;;;;;;;52.58;31.08;;;18.80;98.20;;;;;;5013479;28;20038;-53
2021/07/14 06:17:55;;;;;;;56.80;32.25;;;18.80;98.20;;;;;;4998137;28;20491;-54
2021/07/14 06:20:22;;;;;;;56.85;31.88;;;18.80;98.20;;;;;;5007115;28;20453;-54
2021/07/14 06:22:48;;;;;;;57.30;32.90;;;18.80;98.20;;;;;;5030342;28;20046;-53
2021/07/14 06:25:15;;;;;;;59.20;33.00;;;18.90;98.20;;;;;;5010456;28;20092;-54
2021/07/14 06:27:42;;;;;;;56.88;32.70;;;18.90;98.10;;;;;;5004785;28;20046;-51
2021/07/14 06:30:11;;;;;;;53.05;32.65;;;19.10;97.80;;;;;;5007204;28;20045;-54
2021/07/14 06:32:38;;;;;;;61.83;32.80;;;19.10;97.90;;;;;;5012090;28;20058;-54
2021/07/14 06:35:06;;;;;;;59.08;32.35;;;19.00;98.00;;;;;;5018047;28;20041;-56
2021/07/14 06:37:32;;;;;;;62.03;34.65;;;19.00;98.00;;;;;;5017095;28;20116;-53
2021/07/14 06:39:59;;;;;;;56.38;33.15;;;19.00;97.90;;;;;;5013551;28;20506;-50
2021/07/14 06:42:24;;;;;;;64.78;34.05;;;19.00;98.00;;;;;;5012807;28;20161;-49
2021/07/14 06:44:51;;;;;;;62.42;33.40;;;18.90;98.10;;;;;;5017975;28;20545;-52
2021/07/14 06:47:17;;;;;;;63.38;33.13;;;19.00;98.20;;;;;;5022038;28;20121;-52
2021/07/14 06:49:43;;;;;;;57.75;32.22;;;19.10;98.10;;;;;;5023528;28;20050;-52
2021/07/14 06:52:10;;;;;;;49.25;30.50;;;19.00;97.90;;;;;;5031709;28;20045;-50
2021/07/14 06:54:38;;;;;;;56.47;33.67;;;19.00;97.90;;;;;;5018134;28;20136;-55
2021/07/14 06:57:05;;;;;;;50.58;31.77;;;19.10;97.90;;;;;;5027537;28;20071;-54
2021/07/14 06:59:32;;;;;;;54.70;31.67;;;19.10;97.80;;;;;;5024741;28;20042;-54
2021/07/14 07:02:01;;;;;;;47.42;29.55;;;19.10;97.70;;;;;;5028316;28;20046;-55
2021/07/14 07:04:29;;;;;;;48.55;30.23;;;19.20;97.80;;;;;;5020352;28;20415;-53
2021/07/14 07:06:55;;;;;;;45.75;29.67;;;19.30;97.60;;;;;;5027103;28;20049;-53
2021/07/14 07:09:26;;;;;;;47.83;30.05;;;19.30;97.30;;;;;;5017162;28;20037;-54
2021/07/14 07:11:52;;;;;;;50.40;30.10;;;19.40;97.10;;;;;;5018863;28;20112;-53
2021/07/14 07:14:18;;;;;;;43.50;27.10;;;19.40;97.20;;;;;;5019289;28;20840;-54
2021/07/14 07:16:45;;;;;;;42.28;27.80;;;19.40;97.20;;;;;;5011829;28;20487;-53
2021/07/14 07:19:10;;;;;;;46.60;28.60;;;19.50;97.10;;;;;;5024222;28;20048;-55
2021/07/14 07:21:37;;;;;;;44.00;27.85;;;19.50;97.10;;;;;;5022976;28;20034;-52
2021/07/14 07:24:04;;;;;;;38.72;26.52;;;19.50;97.10;;;;;;5022165;28;20036;-54
2021/07/14 07:26:30;;;;;;;36.45;25.38;;;19.40;96.90;;;;;;4993267;28;20046;-52
2021/07/14 07:29:03;;;;;;;34.28;26.17;;;19.50;96.90;;;;;;5025072;28;20465;-55
2021/07/14 07:31:29;;;;;;;34.22;25.70;;;19.50;96.90;;;;;;5021992;28;20048;-54
2021/07/14 07:33:54;;;;;;;35.90;25.70;;;19.50;96.90;;;;;;5023584;28;20049;-55
2021/07/14 07:36:20;;;;;;;37.10;26.67;;;19.50;96.90;;;;;;5030029;28;20462;-50
2021/07/14 07:38:46;;;;;;;35.47;25.33;;;19.50;97.00;;;;;;5028973;28;20033;-52
2021/07/14 07:41:15;;;;;;;37.38;24.52;;;19.60;97.00;;;;;;5004588;28;20069;-53
2021/07/14 07:43:42;;;;;;;36.20;25.08;;;19.60;96.90;;;;;;5007024;28;20046;-50
2021/07/14 07:46:09;;;;;;;37.25;24.85;;;19.60;96.80;;;;;;5002442;28;20045;-52
2021/07/14 07:48:36;;;;;;;35.75;24.02;;;19.60;96.90;;;;;;4986131;28;20115;-55
2021/07/14 07:51:03;;;;;;;29.77;23.65;;;19.70;97.00;;;;;;5006104;28;20053;-55
2021/07/14 07:53:28;;;;;;;35.20;25.25;;;19.70;96.90;;;;;;5017123;28;20056;-53
2021/07/14 07:55:54;;;;;;;31.88;23.55;;;19.80;96.60;;;;;;5004700;28;20050;-51
2021/07/14 07:58:20;;;;;;;31.85;23.25;;;19.80;96.70;;;;;;5015058;28;20482;-56
2021/07/14 08:00:47;;;;;;;31.25;23.42;;;19.90;96.70;;;;;;5005974;28;20050;-52
2021/07/14 08:03:13;;;;;;;38.03;23.38;;;19.90;96.70;;;;;;5006023;28;20073;-53
2021/07/14 08:05:40;;;;;;;31.73;23.88;;;20.10;96.70;;;;;;5011056;28;20080;-54
2021/07/14 08:08:06;;;;;;;28.13;22.42;;;20.10;96.60;;;;;;5006153;28;20049;-54
2021/07/14 08:10:32;;;;;;;30.35;22.73;;;20.10;96.30;;;;;;5025235;28;20137;-53
2021/07/14 08:12:58;;;;;;;31.63;22.27;;;20.10;96.40;;;;;;5009109;28;20041;-54
2021/07/14 08:15:24;;;;;;;28.52;22.33;;;20.20;96.30;;;;;;5006563;28;20041;-54
2021/07/14 08:17:51;;;;;;;29.77;23.15;;;20.20;96.30;;;;;;4990980;28;20046;-51
2021/07/14 08:20:18;;;;;;;33.78;22.40;;;20.30;96.10;;;;;;5009280;28;20043;-53
2021/07/14 08:22:44;;;;;;;31.98;22.90;;;20.20;96.00;;;;;;5012359;28;20033;-51
2021/07/14 08:25:11;;;;;;;27.77;22.70;;;20.30;95.90;;;;;;5008242;28;20081;-55
2021/07/14 08:27:40;;;;;;;33.67;22.63;;;20.30;95.90;;;;;;5002356;28;20046;-53
2021/07/14 08:30:08;;;;;;;30.65;22.23;;;20.30;95.90;;;;;;4989728;28;20045;-51
2021/07/14 08:32:34;;;;;;;31.50;23.05;;;20.30;96.00;;;;;;5007527;28;20152;-53
2021/07/14 08:35:00;;;;;;;30.38;23.25;;;20.40;95.90;;;;;;5005909;28;20109;-54
2021/07/14 08:37:26;;;;;;;29.05;21.45;;;20.40;95.90;;;;;;5008340;28;20042;-50
2021/07/14 08:39:54;;;;;;;29.88;21.70;;;20.40;96.00;;;;;;5002667;28;21486;-53
2021/07/14 08:42:21;;;;;;;27.30;22.42;;;20.40;96.00;;;;;;4990740;28;20053;-53
2021/07/14 08:44:48;;;;;;;30.63;22.02;;;20.50;95.70;;;;;;4992466;28;20034;-55
2021/07/14 08:47:16;;;;;;;30.20;21.60;;;20.50;95.70;;;;;;5002442;28;20045;-53
2021/07/14 08:49:44;;;;;;;28.98;21.73;;;20.60;95.60;;;;;;5005305;28;20041;-54
2021/07/14 08:52:10;;;;;;;25.85;21.00;;;20.60;95.60;;;;;;5003209;28;20490;-53
2021/07/14 08:54:37;;;;;;;28.10;21.88;;;20.60;95.60;;;;;;5005983;28;20125;-53
2021/07/14 08:57:04;;;;;;;29.40;20.80;;;20.60;95.50;;;;;;4990093;28;20141;-53
2021/07/14 08:59:32;;;;;;;28.15;22.33;;;20.60;95.60;;;;;;5006193;28;20053;-51
2021/07/14 09:01:59;;;;;;;27.98;21.90;;;20.60;95.40;;;;;;5005628;28;20514;-53
2021/07/14 09:04:25;;;;;;;26.80;21.52;;;20.60;95.50;;;;;;4987767;28;20069;-54
2021/07/14 09:06:51;;;;;;;27.55;20.77;;;20.60;95.40;;;;;;5007743;28;20045;-52
2021/07/14 09:09:17;;;;;;;27.05;20.75;;;20.60;95.50;;;;;;5009109;28;20045;-52
2021/07/14 09:11:57;;;;;;;25.65;21.75;;;20.60;95.50;;;;;;5005629;28;20049;-53
2021/07/14 09:14:32;;;;;;;27.67;21.42;;;20.70;95.50;;;;;;5006507;28;20127;-54
2021/07/14 09:17:01;;;;;;;27.20;22.42;;;20.70;95.60;;;;;;4988707;28;20237;-52
2021/07/14 09:19:30;;;;;;;25.85;21.48;;;20.80;95.60;;;;;;5009923;28;20068;-54
2021/07/14 09:21:58;;;;;;;31.67;21.50;;;20.80;95.40;;;;;;5008265;28;20042;-54
2021/07/14 09:24:31;;;;;;;24.00;20.70;;;20.90;95.30;;;;;;4994100;28;20058;-52
2021/07/14 09:27:01;;;;;;;26.33;21.58;;;20.90;95.10;;;;;;5018915;28;20045;-53
2021/07/14 09:29:28;;;;;;;28.40;21.95;;;20.90;95.20;;;;;;5018891;28;20052;-52
2021/07/14 09:31:55;;;;;;;30.38;22.02;;;21.00;95.00;;;;;;5015576;28;20065;-54
2021/07/14 09:34:29;;;;;;;24.52;21.20;;;21.10;94.60;;;;;;5015276;28;20094;-55
2021/07/14 09:37:12;;;;;;;27.80;21.95;;;21.10;94.70;;;;;;5013297;28;20577;-52
2021/07/14 09:39:39;;;;;;;25.80;21.58;;;21.20;94.60;;;;;;5001090;28;20093;-51
2021/07/14 09:42:07;;;;;;;25.15;22.38;;;21.30;94.60;;;;;;4999750;28;20045;-52
2021/07/14 09:44:33;;;;;;;26.45;22.27;;;21.20;94.40;;;;;;5014213;28;20046;-49
2021/07/14 09:47:20;;;;;;;27.27;23.85;;;21.20;94.40;;;;;;5008014;28;20040;-50
2021/07/14 09:49:50;;;;;;;26.60;22.98;;;21.20;94.60;;;;;;5008622;28;20037;-50
2021/07/14 09:52:21;;;;;;;28.20;23.63;;;21.30;94.60;;;;;;5011653;28;20049;-51
2021/07/14 09:54:48;;;;;;;26.85;23.38;;;21.30;94.40;;;;;;5008609;28;20392;-52
2021/07/14 09:57:19;;;;;;;30.38;24.65;;;21.30;94.40;;;;;;4997391;28;20406;-52
2021/07/14 09:59:46;;;;;;;27.95;23.20;;;21.30;94.30;;;;;;5013236;28;20050;-53
2021/07/14 10:02:16;;;;;;;29.90;23.88;;;21.20;94.40;;;;;;5014490;28;20112;-51
2021/07/14 10:04:44;;;;;;;27.55;24.25;;;21.30;94.50;;;;;;4997122;28;20054;-55
2021/07/14 10:07:17;;;;;;;28.50;24.17;;;21.30;94.60;;;;;;5012952;28;20507;-55
2021/07/14 10:09:44;;;;;;;28.67;23.35;;;21.30;94.20;;;;;;5013149;28;20073;-53
2021/07/14 10:12:29;;;;;;;27.90;23.65;;;21.20;94.40;;;;;;5014328;28;20462;-53
2021/07/14 10:15:15;;;;;;;31.83;24.17;;;21.20;94.30;;;;;;5013634;28;20053;-54
2021/07/14 10:17:44;;;;;;;30.08;24.48;;;21.10;94.10;;;;;;4997441;28;20054;-54
2021/07/14 10:20:24;;;;;;;28.83;25.45;;;21.10;94.30;;;;;;5014233;28;20567;-50
2021/07/14 10:22:55;;;;;;;28.95;24.85;;;21.00;94.60;;;;;;4999165;28;20072;-51
2021/07/14 10:25:22;;;;;;;33.72;25.95;;;21.00;94.80;;;;;;5012248;28;20391;-50
2021/07/14 10:27:53;;;;;;;32.20;25.33;;;21.00;94.80;;;;;;5020069;28;20046;-49
2021/07/14 10:30:21;;;;;;;35.15;25.13;;;21.00;94.60;;;;;;5002081;28;20129;-52
2021/07/14 10:32:47;;;;;;;31.05;25.25;;;21.00;94.70;;;;;;5012979;28;20034;-52
2021/07/14 10:35:18;;;;;;;31.17;25.02;;;20.90;94.70;;;;;;4995408;28;20068;-51
2021/07/14 10:37:50;;;;;;;30.90;25.83;;;20.90;94.70;;;;;;5018024;28;20061;-52
2021/07/14 10:40:19;;;;;;;30.77;24.88;;;20.80;94.90;;;;;;5011359;28;20120;-53
2021/07/14 10:42:46;;;;;;;31.40;24.17;;;20.80;94.90;;;;;;4998575;28;20426;-54
2021/07/14 10:45:13;;;;;;;28.23;23.83;;;20.80;95.00;;;;;;5013193;28;20068;-55
2021/07/14 10:47:38;;;;;;;34.10;25.33;;;20.80;95.10;;;;;;5012961;28;20052;-51
2021/07/14 10:50:07;;;;;;;35.40;25.40;;;20.80;95.20;;;;;;5010952;28;20037;-53
2021/07/14 10:52:32;;;;;;;33.17;26.25;;;20.80;95.30;;;;;;5017196;28;20423;-52
2021/07/14 10:55:00;;;;;;;32.58;25.75;;;20.80;95.10;;;;;;5010729;28;20491;-52
2021/07/14 10:57:28;;;;;;;34.88;26.80;;;20.80;95.00;;;;;;4978182;28;20220;-49
2021/07/14 10:59:54;;;;;;;35.03;26.08;;;20.90;95.10;;;;;;5012782;28;20037;-53
2021/07/14 11:02:39;;;;;;;34.08;25.55;;;20.90;95.00;;;;;;5017754;28;20068;-51
2021/07/14 11:05:06;;;;;;;38.28;26.95;;;20.90;95.00;;;;;;5016138;28;20119;-53
2021/07/14 11:07:37;;;;;;;30.45;26.20;;;21.00;95.10;;;;;;5012851;28;20046;-54
2021/07/14 11:10:41;;;;;;;30.75;25.20;;;21.10;95.10;;;;;;5012682;28;20044;-52
2021/07/14 11:13:26;;;;;;;31.77;25.42;;;21.10;94.70;;;;;;5001201;28;20133;-52
2021/07/14 11:15:52;;;;;;;34.40;25.83;;;21.10;94.50;;;;;;4992964;28;20044;-52
2021/07/14 11:18:35;;;;;;;31.20;25.02;;;21.10;94.40;;;;;;5011501;28;20046;-52
2021/07/14 11:21:02;;;;;;;32.97;25.20;;;21.20;94.40;;;;;;5012323;28;20080;-52
2021/07/14 11:23:29;;;;;;;32.00;25.50;;;21.30;94.60;;;;;;5013258;28;20050;-52
2021/07/14 11:25:57;;;;;;;28.67;25.30;;;21.40;94.40;;;;;;4998745;28;20418;-52
2021/07/14 11:28:25;;;;;;;33.63;26.67;;;21.40;94.20;;;;;;5012271;28;20077;-52
2021/07/14 11:30:52;;;;;;;33.15;27.20;;;21.40;94.20;;;;;;5014919;28;20111;-53
2021/07/14 11:33:32;;;;;;;34.45;26.63;;;21.40;94.30;;;;;;5015154;28;20418;-54
2021/07/14 11:36:09;;;;;;;36.92;29.38;;;21.40;94.40;;;;;;5012555;28;20042;-54
2021/07/14 11:38:44;;;;;;;38.97;29.40;;;21.40;94.30;;;;;;5011139;28;20034;-53
2021/07/14 11:41:26;;;;;;;44.47;31.30;;;21.40;94.00;;;;;;5011994;28;20052;-54
2021/07/14 11:43:55;;;;;;;37.97;30.15;;;21.50;94.10;;;;;;5010819;28;20050;-55
2021/07/14 11:46:30;;;;;;;37.97;30.40;;;21.50;94.00;;;;;;5009726;28;20089;-54
2021/07/14 11:49:06;;;;;;;44.40;31.20;;;21.40;94.00;;;;;;5012147;28;20042;-55
2021/07/14 11:51:41;;;;;;;41.00;30.13;;;21.40;94.00;;;;;;5010284;28;20050;-51
2021/07/14 11:54:23;;;;;;;37.40;28.30;;;21.40;93.80;;;;;;5011179;28;20060;-54
2021/07/14 11:56:51;;;;;;;36.75;29.17;;;21.40;93.60;;;;;;5013726;28;20105;-55
2021/07/14 11:59:28;;;;;;;37.25;27.23;;;21.40;93.90;;;;;;4998944;28;20423;-54
2021/07/14 12:02:00;;;;;;;32.63;26.27;;;21.40;94.00;;;;;;5010365;28;20074;-52
2021/07/14 12:04:27;;;;;;;30.58;25.00;;;21.50;93.50;;;;;;4997524;28;20058;-52
2021/07/14 12:07:11;;;;;;;33.78;25.80;;;21.50;93.80;;;;;;5016613;28;20096;-52
2021/07/14 12:09:40;;;;;;;29.65;24.45;;;21.60;93.90;;;;;;5012937;28;20045;-52
2021/07/14 12:12:08;;;;;;;31.33;25.10;;;21.70;93.70;;;;;;5011123;28;20414;-52
2021/07/14 12:14:42;;;;;;;28.45;23.25;;;21.70;93.80;;;;;;5011929;28;20096;-50
2021/07/14 12:17:11;;;;;;;25.15;20.60;;;22.00;93.70;;;;;;5008551;28;20402;-50
2021/07/14 12:19:55;;;;;;;24.30;19.95;;;22.20;92.60;;;;;;5014989;28;20038;-50
2021/07/14 12:22:27;;;;;;;23.65;19.58;;;22.40;92.20;;;;;;5005971;28;20041;-52
2021/07/14 12:25:12;;;;;;;30.45;22.05;;;22.50;91.60;;;;;;5009801;28;20045;-55
2021/07/14 12:27:41;;;;;;;26.40;20.30;;;22.40;92.10;;;;;;5010132;28;20046;-53
2021/07/14 12:30:24;;;;;;;26.02;20.85;;;22.40;92.10;;;;;;5011848;28;20038;-52
2021/07/14 12:33:00;;;;;;;27.80;20.65;;;22.40;92.10;;;;;;5008488;28;20045;-53
2021/07/14 12:35:29;;;;;;;25.90;20.98;;;22.40;92.30;;;;;;5007670;28;20061;-54
2021/07/14 12:37:58;;;;;;;29.17;21.83;;;22.40;92.10;;;;;;5009836;28;20451;-50
2021/07/14 12:40:24;;;;;;;25.95;21.25;;;22.40;92.50;;;;;;4979848;28;20042;-53
2021/07/14 12:42:52;;;;;;;21.92;19.33;;;22.40;92.50;;;;;;5010622;28;20038;-54
2021/07/14 12:45:25;;;;;;;25.10;19.88;;;22.40;92.00;;;;;;4977868;28;20081;-54